sensor_id;sensor_type;location;lat;lon;timestamp;pressure;altitude;pressure_sealevel;temperature;humidity
43814;BME280;29669;55.706;37.656;2023-04-15T00:00:07;101127.16;;;2.33;nan
43814;BME280;29669;55.706;37.656;2023-04-15T00:02:39;101125.78;;;2.26;nan
43814;BME280;29669;55.706;37.656;2023-04-15T00:05:07;101127.78;;;2.21;nan
43814;BME280;29669;55.706;37.656;2023-04-15T00:07:35;101130.47;;;2.18;nan
43814;BME280;29669;55.706;37.656;2023-04-15T00:10:02;101134.13;;;2.14;nan
43814;BME280;29669;55.706;37.656;2023-04-15T00:12:30;101135.91;;;2.12;nan
43814;BME280;29669;55.706;37.656;2023-04-15T00:14:58;101141.19;;;2.09;nan
43814;BME280;29669;55.706;37.656;2023-04-15T00:17:26;101142.31;;;2.03;nan
43814;BME280;29669;55.706;37.656;2023-04-15T00:19:54;101151.78;;;2.01;nan
43814;BME280;29669;55.706;37.656;2023-04-15T00:22:21;101146.16;;;1.95;nan
43814;BME280;29669;55.706;37.656;2023-04-15T00:24:49;101146.47;;;1.88;nan
43814;BME280;29669;55.706;37.656;2023-04-15T00:27:17;101150.22;;;1.81;nan
43814;BME280;29669;55.706;37.656;2023-04-15T00:29:44;101157.34;;;1.75;nan
43814;BME280;29669;55.706;37.656;2023-04-15T00:32:12;101155.72;;;1.74;nan
43814;BME280;29669;55.706;37.656;2023-04-15T00:34:40;101153.28;;;1.71;nan
43814;BME280;29669;55.706;37.656;2023-04-15T00:37:09;101158.56;;;1.68;nan
43814;BME280;29669;55.706;37.656;2023-04-15T00:39:40;101161.19;;;1.66;nan
43814;BME280;29669;55.706;37.656;2023-04-15T00:42:08;101159.75;;;1.61;nan
43814;BME280;29669;55.706;37.656;2023-04-15T00:44:36;101167.34;;;1.62;nan
43814;BME280;29669;55.706;37.656;2023-04-15T00:47:04;101170.72;;;1.63;nan
43814;BME280;29669;55.706;37.656;2023-04-15T00:49:32;101173.50;;;1.58;nan
43814;BME280;29669;55.706;37.656;2023-04-15T00:52:01;101177.94;;;1.55;nan
43814;BME280;29669;55.706;37.656;2023-04-15T00:54:44;101177.13;;;1.54;nan
43814;BME280;29669;55.706;37.656;2023-04-15T00:57:12;101181.38;;;1.54;nan
43814;BME280;29669;55.706;37.656;2023-04-15T00:59:40;101193.56;;;1.49;nan
43814;BME280;29669;55.706;37.656;2023-04-15T01:02:11;101187.97;;;1.41;nan
43814;BME280;29669;55.706;37.656;2023-04-15T01:04:39;101194.28;;;1.34;nan
43814;BME280;29669;55.706;37.656;2023-04-15T01:07:07;101189.44;;;1.28;nan
43814;BME280;29669;55.706;37.656;2023-04-15T01:09:35;101195.50;;;1.25;nan
43814;BME280;29669;55.706;37.656;2023-04-15T01:12:04;101201.63;;;1.23;nan
43814;BME280;29669;55.706;37.656;2023-04-15T01:14:32;101200.22;;;1.16;nan
43814;BME280;29669;55.706;37.656;2023-04-15T01:17:04;101205.63;;;1.10;nan
43814;BME280;29669;55.706;37.656;2023-04-15T01:19:32;101200.56;;;1.08;nan
43814;BME280;29669;55.706;37.656;2023-04-15T01:22:01;101204.03;;;1.07;nan
43814;BME280;29669;55.706;37.656;2023-04-15T01:24:30;101207.53;;;1.05;nan
43814;BME280;29669;55.706;37.656;2023-04-15T01:26:58;101207.75;;;1.00;nan
43814;BME280;29669;55.706;37.656;2023-04-15T01:29:26;101210.56;;;0.94;nan
43814;BME280;29669;55.706;37.656;2023-04-15T01:31:56;101214.91;;;0.92;nan
43814;BME280;29669;55.706;37.656;2023-04-15T01:34:45;101216.53;;;0.94;nan
43814;BME280;29669;55.706;37.656;2023-04-15T01:37:32;101217.47;;;0.92;nan
43814;BME280;29669;55.706;37.656;2023-04-15T01:40:00;101232.88;;;0.90;nan
43814;BME280;29669;55.706;37.656;2023-04-15T01:42:28;101218.50;;;0.88;nan
43814;BME280;29669;55.706;37.656;2023-04-15T01:44:57;101229.63;;;0.87;nan
43814;BME280;29669;55.706;37.656;2023-04-15T01:47:26;101233.06;;;0.86;nan
43814;BME280;29669;55.706;37.656;2023-04-15T01:49:55;101230.59;;;0.84;nan
43814;BME280;29669;55.706;37.656;2023-04-15T01:52:25;101229.75;;;0.84;nan
43814;BME280;29669;55.706;37.656;2023-04-15T01:55:02;101240.91;;;0.81;nan
43814;BME280;29669;55.706;37.656;2023-04-15T01:57:31;101241.97;;;0.77;nan
43814;BME280;29669;55.706;37.656;2023-04-15T02:00:01;101237.75;;;0.76;nan
43814;BME280;29669;55.706;37.656;2023-04-15T02:02:40;101240.13;;;0.81;nan
43814;BME280;29669;55.706;37.656;2023-04-15T02:05:09;101245.22;;;0.81;nan
43814;BME280;29669;55.706;37.656;2023-04-15T02:07:38;101250.19;;;0.84;nan
43814;BME280;29669;55.706;37.656;2023-04-15T02:10:09;101252.91;;;0.81;nan
43814;BME280;29669;55.706;37.656;2023-04-15T02:12:39;101253.16;;;0.75;nan
43814;BME280;29669;55.706;37.656;2023-04-15T02:15:08;101262.59;;;0.73;nan
43814;BME280;29669;55.706;37.656;2023-04-15T02:17:38;101262.75;;;0.70;nan
43814;BME280;29669;55.706;37.656;2023-04-15T02:20:09;101256.91;;;0.66;nan
43814;BME280;29669;55.706;37.656;2023-04-15T02:22:38;101264.63;;;0.65;nan
43814;BME280;29669;55.706;37.656;2023-04-15T02:25:08;101266.25;;;0.67;nan
43814;BME280;29669;55.706;37.656;2023-04-15T02:27:37;101267.13;;;0.66;nan
43814;BME280;29669;55.706;37.656;2023-04-15T02:30:06;101265.41;;;0.67;nan
43814;BME280;29669;55.706;37.656;2023-04-15T02:32:35;101273.97;;;0.66;nan
43814;BME280;29669;55.706;37.656;2023-04-15T02:35:06;101275.75;;;0.64;nan
43814;BME280;29669;55.706;37.656;2023-04-15T02:37:36;101282.53;;;0.65;nan
43814;BME280;29669;55.706;37.656;2023-04-15T02:40:12;101283.28;;;0.67;nan
43814;BME280;29669;55.706;37.656;2023-04-15T02:42:41;101296.97;;;0.66;nan
43814;BME280;29669;55.706;37.656;2023-04-15T02:45:17;101297.75;;;0.68;nan
43814;BME280;29669;55.706;37.656;2023-04-15T02:47:51;101296.84;;;0.69;nan
43814;BME280;29669;55.706;37.656;2023-04-15T02:50:20;101300.03;;;0.74;nan
43814;BME280;29669;55.706;37.656;2023-04-15T02:52:51;101311.69;;;0.81;nan
43814;BME280;29669;55.706;37.656;2023-04-15T02:55:23;101311.47;;;0.85;nan
43814;BME280;29669;55.706;37.656;2023-04-15T02:57:56;101306.31;;;0.87;nan
43814;BME280;29669;55.706;37.656;2023-04-15T03:00:29;101312.94;;;0.91;nan
43814;BME280;29669;55.706;37.656;2023-04-15T03:03:03;101311.88;;;0.97;nan
43814;BME280;29669;55.706;37.656;2023-04-15T03:05:33;101320.09;;;1.03;nan
43814;BME280;29669;55.706;37.656;2023-04-15T03:08:04;101323.28;;;1.08;nan
43814;BME280;29669;55.706;37.656;2023-04-15T03:10:34;101320.53;;;1.13;nan
43814;BME280;29669;55.706;37.656;2023-04-15T03:13:06;101318.56;;;1.19;nan
43814;BME280;29669;55.706;37.656;2023-04-15T03:15:35;101324.22;;;1.26;nan
43814;BME280;29669;55.706;37.656;2023-04-15T03:18:05;101325.63;;;1.33;nan
43814;BME280;29669;55.706;37.656;2023-04-15T03:20:35;101328.81;;;1.38;nan
43814;BME280;29669;55.706;37.656;2023-04-15T03:23:05;101324.31;;;1.43;nan
43814;BME280;29669;55.706;37.656;2023-04-15T03:25:33;101325.78;;;1.48;nan
43814;BME280;29669;55.706;37.656;2023-04-15T03:28:07;101339.16;;;1.55;nan
43814;BME280;29669;55.706;37.656;2023-04-15T03:30:36;101343.16;;;1.60;nan
43814;BME280;29669;55.706;37.656;2023-04-15T03:33:05;101343.78;;;1.65;nan
43814;BME280;29669;55.706;37.656;2023-04-15T03:35:34;101336.59;;;1.73;nan
43814;BME280;29669;55.706;37.656;2023-04-15T03:38:03;101344.81;;;1.80;nan
43814;BME280;29669;55.706;37.656;2023-04-15T03:40:32;101342.06;;;1.84;nan
43814;BME280;29669;55.706;37.656;2023-04-15T03:43:01;101347.78;;;1.89;nan
43814;BME280;29669;55.706;37.656;2023-04-15T03:45:31;101353.41;;;1.98;nan
43814;BME280;29669;55.706;37.656;2023-04-15T03:48:00;101353.97;;;2.04;nan
43814;BME280;29669;55.706;37.656;2023-04-15T03:50:32;101357.06;;;2.11;nan
43814;BME280;29669;55.706;37.656;2023-04-15T03:53:01;101357.69;;;2.16;nan
43814;BME280;29669;55.706;37.656;2023-04-15T03:55:29;101362.50;;;2.22;nan
43814;BME280;29669;55.706;37.656;2023-04-15T03:57:59;101362.31;;;2.26;nan
43814;BME280;29669;55.706;37.656;2023-04-15T04:00:28;101356.06;;;2.32;nan
43814;BME280;29669;55.706;37.656;2023-04-15T04:02:57;101362.56;;;2.39;nan
43814;BME280;29669;55.706;37.656;2023-04-15T04:05:27;101365.59;;;2.47;nan
43814;BME280;29669;55.706;37.656;2023-04-15T04:07:56;101367.03;;;2.52;nan
43814;BME280;29669;55.706;37.656;2023-04-15T04:10:25;101368.38;;;2.59;nan
43814;BME280;29669;55.706;37.656;2023-04-15T04:12:54;101373.03;;;2.70;nan
43814;BME280;29669;55.706;37.656;2023-04-15T04:15:23;101372.66;;;2.77;nan
43814;BME280;29669;55.706;37.656;2023-04-15T04:17:52;101368.03;;;2.84;nan
43814;BME280;29669;55.706;37.656;2023-04-15T04:20:21;101364.03;;;2.96;nan
43814;BME280;29669;55.706;37.656;2023-04-15T04:22:50;101378.00;;;3.07;nan
43814;BME280;29669;55.706;37.656;2023-04-15T04:25:19;101373.41;;;3.14;nan
43814;BME280;29669;55.706;37.656;2023-04-15T04:27:48;101382.53;;;3.19;nan
43814;BME280;29669;55.706;37.656;2023-04-15T04:30:17;101383.19;;;3.23;nan
43814;BME280;29669;55.706;37.656;2023-04-15T04:32:48;101381.09;;;3.31;nan
43814;BME280;29669;55.706;37.656;2023-04-15T04:35:18;101377.97;;;3.41;nan
43814;BME280;29669;55.706;37.656;2023-04-15T04:37:47;101386.09;;;3.49;nan
43814;BME280;29669;55.706;37.656;2023-04-15T04:40:16;101376.09;;;3.60;nan
43814;BME280;29669;55.706;37.656;2023-04-15T04:42:46;101378.06;;;3.72;nan
43814;BME280;29669;55.706;37.656;2023-04-15T04:45:15;101382.53;;;3.84;nan
43814;BME280;29669;55.706;37.656;2023-04-15T04:47:44;101382.97;;;3.93;nan
43814;BME280;29669;55.706;37.656;2023-04-15T04:50:13;101378.06;;;4.04;nan
43814;BME280;29669;55.706;37.656;2023-04-15T04:52:43;101386.53;;;4.21;nan
43814;BME280;29669;55.706;37.656;2023-04-15T04:55:12;101382.16;;;4.39;nan
43814;BME280;29669;55.706;37.656;2023-04-15T04:57:40;101379.63;;;4.53;nan
43814;BME280;29669;55.706;37.656;2023-04-15T05:00:10;101379.09;;;4.62;nan
43814;BME280;29669;55.706;37.656;2023-04-15T05:02:40;101377.88;;;4.69;nan
43814;BME280;29669;55.706;37.656;2023-04-15T05:05:11;101381.19;;;4.71;nan
43814;BME280;29669;55.706;37.656;2023-04-15T05:07:40;101381.84;;;4.74;nan
43814;BME280;29669;55.706;37.656;2023-04-15T05:10:09;101384.50;;;4.73;nan
43814;BME280;29669;55.706;37.656;2023-04-15T05:12:39;101390.19;;;4.78;nan
43814;BME280;29669;55.706;37.656;2023-04-15T05:15:08;101388.28;;;4.82;nan
43814;BME280;29669;55.706;37.656;2023-04-15T05:17:37;101389.13;;;4.82;nan
43814;BME280;29669;55.706;37.656;2023-04-15T05:20:06;101393.53;;;4.80;nan
43814;BME280;29669;55.706;37.656;2023-04-15T05:22:37;101390.53;;;4.72;nan
43814;BME280;29669;55.706;37.656;2023-04-15T05:25:06;101389.97;;;4.67;nan
43814;BME280;29669;55.706;37.656;2023-04-15T05:27:36;101394.94;;;4.70;nan
43814;BME280;29669;55.706;37.656;2023-04-15T05:30:05;101396.53;;;4.72;nan
43814;BME280;29669;55.706;37.656;2023-04-15T05:32:34;101390.13;;;4.79;nan
43814;BME280;29669;55.706;37.656;2023-04-15T05:35:03;101390.59;;;4.86;nan
43814;BME280;29669;55.706;37.656;2023-04-15T05:37:33;101400.72;;;4.89;nan
43814;BME280;29669;55.706;37.656;2023-04-15T05:40:02;101393.53;;;4.94;nan
43814;BME280;29669;55.706;37.656;2023-04-15T05:42:32;101396.72;;;4.99;nan
43814;BME280;29669;55.706;37.656;2023-04-15T05:45:01;101406.66;;;5.05;nan
43814;BME280;29669;55.706;37.656;2023-04-15T05:47:39;101400.31;;;5.11;nan
43814;BME280;29669;55.706;37.656;2023-04-15T05:50:08;101408.34;;;5.20;nan
43814;BME280;29669;55.706;37.656;2023-04-15T05:52:39;101405.97;;;5.31;nan
43814;BME280;29669;55.706;37.656;2023-04-15T05:55:08;101409.47;;;5.44;nan
43814;BME280;29669;55.706;37.656;2023-04-15T05:57:37;101419.03;;;5.56;nan
43814;BME280;29669;55.706;37.656;2023-04-15T06:00:06;101413.81;;;5.72;nan
43814;BME280;29669;55.706;37.656;2023-04-15T06:02:41;101411.72;;;5.79;nan
43814;BME280;29669;55.706;37.656;2023-04-15T06:05:10;101406.13;;;5.86;nan
43814;BME280;29669;55.706;37.656;2023-04-15T06:07:39;101410.34;;;6.01;nan
43814;BME280;29669;55.706;37.656;2023-04-15T06:10:15;101416.88;;;6.07;nan
43814;BME280;29669;55.706;37.656;2023-04-15T06:12:44;101415.81;;;6.23;nan
43814;BME280;29669;55.706;37.656;2023-04-15T06:15:14;101410.53;;;6.39;nan
43814;BME280;29669;55.706;37.656;2023-04-15T06:17:43;101427.50;;;6.43;nan
43814;BME280;29669;55.706;37.656;2023-04-15T06:20:13;101422.97;;;6.46;nan
43814;BME280;29669;55.706;37.656;2023-04-15T06:22:42;101422.75;;;6.49;nan
43814;BME280;29669;55.706;37.656;2023-04-15T06:25:11;101422.84;;;6.62;nan
43814;BME280;29669;55.706;37.656;2023-04-15T06:27:40;101422.25;;;6.71;nan
43814;BME280;29669;55.706;37.656;2023-04-15T06:30:10;101420.31;;;6.87;nan
43814;BME280;29669;55.706;37.656;2023-04-15T06:32:39;101418.81;;;6.97;nan
43814;BME280;29669;55.706;37.656;2023-04-15T06:35:08;101430.78;;;6.98;nan
43814;BME280;29669;55.706;37.656;2023-04-15T06:37:38;101423.06;;;7.11;nan
43814;BME280;29669;55.706;37.656;2023-04-15T06:40:21;101423.63;;;7.28;nan
43814;BME280;29669;55.706;37.656;2023-04-15T06:42:50;101418.34;;;7.42;nan
43814;BME280;29669;55.706;37.656;2023-04-15T06:45:20;101430.56;;;7.53;nan
43814;BME280;29669;55.706;37.656;2023-04-15T06:47:49;101433.75;;;7.56;nan
43814;BME280;29669;55.706;37.656;2023-04-15T06:50:18;101425.06;;;7.57;nan
43814;BME280;29669;55.706;37.656;2023-04-15T06:52:48;101434.78;;;7.67;nan
43814;BME280;29669;55.706;37.656;2023-04-15T06:55:17;101432.72;;;7.72;nan
43814;BME280;29669;55.706;37.656;2023-04-15T06:57:45;101427.56;;;7.72;nan
43814;BME280;29669;55.706;37.656;2023-04-15T07:00:14;101432.50;;;7.75;nan
43814;BME280;29669;55.706;37.656;2023-04-15T07:02:44;101429.81;;;7.76;nan
43814;BME280;29669;55.706;37.656;2023-04-15T07:05:15;101430.34;;;7.69;nan
43814;BME280;29669;55.706;37.656;2023-04-15T07:07:46;101429.19;;;7.73;nan
43814;BME280;29669;55.706;37.656;2023-04-15T07:10:23;101430.97;;;7.85;nan
43814;BME280;29669;55.706;37.656;2023-04-15T07:12:53;101432.69;;;7.97;nan
43814;BME280;29669;55.706;37.656;2023-04-15T07:15:22;101426.91;;;8.06;nan
43814;BME280;29669;55.706;37.656;2023-04-15T07:17:51;101427.50;;;8.09;nan
43814;BME280;29669;55.706;37.656;2023-04-15T07:20:20;101418.19;;;8.07;nan
43814;BME280;29669;55.706;37.656;2023-04-15T07:22:49;101427.41;;;8.11;nan
43814;BME280;29669;55.706;37.656;2023-04-15T07:25:17;101426.97;;;8.17;nan
43814;BME280;29669;55.706;37.656;2023-04-15T07:27:56;101427.31;;;8.25;nan
43814;BME280;29669;55.706;37.656;2023-04-15T07:30:28;101431.81;;;8.34;nan
43814;BME280;29669;55.706;37.656;2023-04-15T07:32:58;101423.34;;;8.32;nan
43814;BME280;29669;55.706;37.656;2023-04-15T07:35:28;101428.03;;;8.27;nan
43814;BME280;29669;55.706;37.656;2023-04-15T07:37:56;101421.91;;;8.28;nan
43814;BME280;29669;55.706;37.656;2023-04-15T07:40:25;101420.75;;;8.32;nan
43814;BME280;29669;55.706;37.656;2023-04-15T07:43:00;101428.94;;;8.26;nan
43814;BME280;29669;55.706;37.656;2023-04-15T07:45:31;101415.69;;;8.18;nan
43814;BME280;29669;55.706;37.656;2023-04-15T07:48:00;101423.03;;;8.24;nan
43814;BME280;29669;55.706;37.656;2023-04-15T07:50:29;101423.66;;;8.27;nan
43814;BME280;29669;55.706;37.656;2023-04-15T07:52:59;101420.25;;;8.27;nan
43814;BME280;29669;55.706;37.656;2023-04-15T07:55:28;101414.25;;;8.26;nan
43814;BME280;29669;55.706;37.656;2023-04-15T07:58:16;101411.25;;;8.32;nan
43814;BME280;29669;55.706;37.656;2023-04-15T08:00:45;101418.28;;;8.30;nan
43814;BME280;29669;55.706;37.656;2023-04-15T08:03:15;101421.59;;;8.32;nan
43814;BME280;29669;55.706;37.656;2023-04-15T08:05:54;101418.38;;;8.29;nan
43814;BME280;29669;55.706;37.656;2023-04-15T08:08:23;101423.84;;;8.37;nan
43814;BME280;29669;55.706;37.656;2023-04-15T08:10:53;101405.06;;;8.46;nan
43814;BME280;29669;55.706;37.656;2023-04-15T08:13:22;101417.13;;;8.58;nan
43814;BME280;29669;55.706;37.656;2023-04-15T08:15:53;101420.34;;;8.62;nan
43814;BME280;29669;55.706;37.656;2023-04-15T08:18:40;101415.56;;;8.68;nan
43814;BME280;29669;55.706;37.656;2023-04-15T08:21:13;101414.44;;;8.83;nan
43814;BME280;29669;55.706;37.656;2023-04-15T08:23:43;101419.75;;;8.82;nan
43814;BME280;29669;55.706;37.656;2023-04-15T08:26:12;101416.53;;;8.78;nan
43814;BME280;29669;55.706;37.656;2023-04-15T08:28:42;101410.66;;;8.76;nan
43814;BME280;29669;55.706;37.656;2023-04-15T08:31:15;101416.91;;;8.85;nan
43814;BME280;29669;55.706;37.656;2023-04-15T08:33:44;101410.72;;;8.98;nan
43814;BME280;29669;55.706;37.656;2023-04-15T08:36:13;101402.50;;;9.04;nan
43814;BME280;29669;55.706;37.656;2023-04-15T08:38:43;101401.72;;;9.15;nan
43814;BME280;29669;55.706;37.656;2023-04-15T08:41:22;101412.53;;;9.20;nan
43814;BME280;29669;55.706;37.656;2023-04-15T08:43:52;101408.94;;;9.33;nan
43814;BME280;29669;55.706;37.656;2023-04-15T08:46:22;101416.38;;;9.38;nan
43814;BME280;29669;55.706;37.656;2023-04-15T08:48:59;101403.03;;;9.42;nan
43814;BME280;29669;55.706;37.656;2023-04-15T08:51:31;101394.34;;;9.55;nan
43814;BME280;29669;55.706;37.656;2023-04-15T08:54:01;101408.03;;;9.68;nan
43814;BME280;29669;55.706;37.656;2023-04-15T08:56:31;101394.25;;;9.78;nan
43814;BME280;29669;55.706;37.656;2023-04-15T08:59:15;101399.78;;;9.96;nan
43814;BME280;29669;55.706;37.656;2023-04-15T09:01:45;101394.13;;;10.13;nan
43814;BME280;29669;55.706;37.656;2023-04-15T09:04:15;101395.78;;;10.14;nan
43814;BME280;29669;55.706;37.656;2023-04-15T09:06:53;101391.50;;;10.24;nan
43814;BME280;29669;55.706;37.656;2023-04-15T09:09:22;101386.50;;;10.43;nan
43814;BME280;29669;55.706;37.656;2023-04-15T09:11:52;101382.41;;;10.72;nan
43814;BME280;29669;55.706;37.656;2023-04-15T09:14:20;101388.94;;;10.87;nan
43814;BME280;29669;55.706;37.656;2023-04-15T09:17:00;101377.09;;;10.94;nan
43814;BME280;29669;55.706;37.656;2023-04-15T09:19:29;101389.53;;;11.11;nan
43814;BME280;29669;55.706;37.656;2023-04-15T09:21:59;101384.22;;;11.33;nan
43814;BME280;29669;55.706;37.656;2023-04-15T09:24:35;101383.59;;;11.51;nan
43814;BME280;29669;55.706;37.656;2023-04-15T09:27:07;101393.25;;;11.60;nan
43814;BME280;29669;55.706;37.656;2023-04-15T09:29:36;101385.16;;;11.63;nan
43814;BME280;29669;55.706;37.656;2023-04-15T09:32:11;101386.50;;;11.78;nan
43814;BME280;29669;55.706;37.656;2023-04-15T09:34:41;101375.72;;;11.92;nan
43814;BME280;29669;55.706;37.656;2023-04-15T09:37:11;101372.47;;;11.99;nan
43814;BME280;29669;55.706;37.656;2023-04-15T09:39:56;101376.91;;;12.18;nan
43814;BME280;29669;55.706;37.656;2023-04-15T09:42:25;101375.56;;;12.33;nan
43814;BME280;29669;55.706;37.656;2023-04-15T09:44:55;101372.97;;;12.52;nan
43814;BME280;29669;55.706;37.656;2023-04-15T09:47:30;101366.25;;;12.69;nan
43814;BME280;29669;55.706;37.656;2023-04-15T09:50:00;101376.81;;;12.67;nan
43814;BME280;29669;55.706;37.656;2023-04-15T09:52:29;101374.06;;;12.78;nan
43814;BME280;29669;55.706;37.656;2023-04-15T09:54:58;101367.06;;;12.98;nan
43814;BME280;29669;55.706;37.656;2023-04-15T09:57:37;101370.34;;;13.19;nan
43814;BME280;29669;55.706;37.656;2023-04-15T10:00:07;101374.78;;;13.46;nan
43814;BME280;29669;55.706;37.656;2023-04-15T10:02:39;101372.22;;;13.73;nan
43814;BME280;29669;55.706;37.656;2023-04-15T10:05:12;101379.84;;;13.84;nan
43814;BME280;29669;55.706;37.656;2023-04-15T10:07:41;101372.81;;;13.94;nan
43814;BME280;29669;55.706;37.656;2023-04-15T10:10:11;101376.31;;;14.02;nan
43814;BME280;29669;55.706;37.656;2023-04-15T10:12:40;101375.41;;;13.94;nan
43814;BME280;29669;55.706;37.656;2023-04-15T10:15:13;101376.91;;;13.69;nan
43814;BME280;29669;55.706;37.656;2023-04-15T10:17:49;101370.38;;;13.56;nan
43814;BME280;29669;55.706;37.656;2023-04-15T10:20:20;101371.84;;;13.68;nan
43814;BME280;29669;55.706;37.656;2023-04-15T10:22:50;101370.00;;;13.78;nan
43814;BME280;29669;55.706;37.656;2023-04-15T10:25:19;101366.22;;;13.90;nan
43814;BME280;29669;55.706;37.656;2023-04-15T10:27:49;101363.03;;;13.96;nan
43814;BME280;29669;55.706;37.656;2023-04-15T10:30:20;101368.94;;;13.98;nan
43814;BME280;29669;55.706;37.656;2023-04-15T10:32:49;101363.72;;;13.98;nan
43814;BME280;29669;55.706;37.656;2023-04-15T10:35:19;101362.78;;;14.16;nan
43814;BME280;29669;55.706;37.656;2023-04-15T10:37:49;101361.78;;;14.27;nan
43814;BME280;29669;55.706;37.656;2023-04-15T10:40:25;101361.56;;;14.56;nan
43814;BME280;29669;55.706;37.656;2023-04-15T10:42:55;101368.34;;;14.84;nan
43814;BME280;29669;55.706;37.656;2023-04-15T10:45:25;101362.94;;;15.03;nan
43814;BME280;29669;55.706;37.656;2023-04-15T10:47:55;101364.75;;;15.02;nan
43814;BME280;29669;55.706;37.656;2023-04-15T10:50:27;101365.03;;;14.99;nan
43814;BME280;29669;55.706;37.656;2023-04-15T10:52:57;101364.69;;;14.94;nan
43814;BME280;29669;55.706;37.656;2023-04-15T10:55:28;101357.88;;;14.84;nan
43814;BME280;29669;55.706;37.656;2023-04-15T10:57:59;101356.09;;;14.84;nan
43814;BME280;29669;55.706;37.656;2023-04-15T11:00:29;101356.53;;;14.97;nan
43814;BME280;29669;55.706;37.656;2023-04-15T11:03:08;101358.63;;;14.94;nan
43814;BME280;29669;55.706;37.656;2023-04-15T11:08:10;101346.13;;;14.80;nan
43814;BME280;29669;55.706;37.656;2023-04-15T11:15:38;101356.44;;;14.29;nan
43814;BME280;29669;55.706;37.656;2023-04-15T11:18:11;101355.63;;;14.18;nan
43814;BME280;29669;55.706;37.656;2023-04-15T11:20:44;101358.16;;;14.10;nan
43814;BME280;29669;55.706;37.656;2023-04-15T11:23:16;101352.50;;;14.15;nan
43814;BME280;29669;55.706;37.656;2023-04-15T11:25:46;101348.16;;;14.24;nan
43814;BME280;29669;55.706;37.656;2023-04-15T11:28:16;101349.25;;;14.31;nan
43814;BME280;29669;55.706;37.656;2023-04-15T11:30:48;101343.88;;;14.32;nan
43814;BME280;29669;55.706;37.656;2023-04-15T11:33:17;101336.41;;;14.37;nan
43814;BME280;29669;55.706;37.656;2023-04-15T11:35:46;101345.84;;;14.48;nan
43814;BME280;29669;55.706;37.656;2023-04-15T11:38:15;101337.53;;;14.52;nan
43814;BME280;29669;55.706;37.656;2023-04-15T11:40:44;101338.13;;;14.46;nan
43814;BME280;29669;55.706;37.656;2023-04-15T11:43:15;101342.84;;;14.43;nan
43814;BME280;29669;55.706;37.656;2023-04-15T11:45:51;101333.06;;;14.45;nan
43814;BME280;29669;55.706;37.656;2023-04-15T11:48:21;101325.81;;;14.56;nan
43814;BME280;29669;55.706;37.656;2023-04-15T11:50:55;101329.47;;;14.63;nan
43814;BME280;29669;55.706;37.656;2023-04-15T11:53:23;101329.78;;;14.60;nan
43814;BME280;29669;55.706;37.656;2023-04-15T11:55:51;101316.03;;;14.58;nan
43814;BME280;29669;55.706;37.656;2023-04-15T11:58:20;101323.28;;;14.64;nan
43814;BME280;29669;55.706;37.656;2023-04-15T12:00:58;101321.28;;;14.84;nan
43814;BME280;29669;55.706;37.656;2023-04-15T12:03:27;101322.53;;;14.97;nan
43814;BME280;29669;55.706;37.656;2023-04-15T12:11:41;101311.31;;;15.05;nan
43814;BME280;29669;55.706;37.656;2023-04-15T12:16:48;101306.63;;;15.17;nan
43814;BME280;29669;55.706;37.656;2023-04-15T12:19:17;101303.25;;;15.24;nan
43814;BME280;29669;55.706;37.656;2023-04-15T12:21:45;101305.41;;;15.29;nan
43814;BME280;29669;55.706;37.656;2023-04-15T12:24:14;101307.31;;;15.44;nan
43814;BME280;29669;55.706;37.656;2023-04-15T12:26:43;101301.00;;;15.71;nan
43814;BME280;29669;55.706;37.656;2023-04-15T12:29:11;101298.56;;;15.69;nan
43814;BME280;29669;55.706;37.656;2023-04-15T12:31:50;101299.34;;;15.62;nan
43814;BME280;29669;55.706;37.656;2023-04-15T12:34:24;101302.41;;;15.49;nan
43814;BME280;29669;55.706;37.656;2023-04-15T12:36:53;101308.88;;;15.63;nan
43814;BME280;29669;55.706;37.656;2023-04-15T12:39:24;101302.03;;;15.78;nan
43814;BME280;29669;55.706;37.656;2023-04-15T12:41:53;101299.75;;;15.83;nan
43814;BME280;29669;55.706;37.656;2023-04-15T12:44:21;101301.13;;;16.11;nan
43814;BME280;29669;55.706;37.656;2023-04-15T12:46:50;101303.63;;;16.77;nan
43814;BME280;29669;55.706;37.656;2023-04-15T12:49:20;101297.00;;;17.29;nan
43814;BME280;29669;55.706;37.656;2023-04-15T12:51:49;101304.50;;;17.79;nan
43814;BME280;29669;55.706;37.656;2023-04-15T12:54:17;101300.34;;;18.15;nan
43814;BME280;29669;55.706;37.656;2023-04-15T12:56:45;101292.00;;;18.34;nan
43814;BME280;29669;55.706;37.656;2023-04-15T12:59:13;101293.94;;;18.40;nan
43814;BME280;29669;55.706;37.656;2023-04-15T13:01:41;101300.97;;;18.48;nan
43814;BME280;29669;55.706;37.656;2023-04-15T13:04:08;101291.50;;;18.61;nan
43814;BME280;29669;55.706;37.656;2023-04-15T13:06:36;101297.47;;;18.55;nan
43814;BME280;29669;55.706;37.656;2023-04-15T13:09:04;101288.25;;;18.74;nan
43814;BME280;29669;55.706;37.656;2023-04-15T13:11:33;101292.00;;;18.94;nan
43814;BME280;29669;55.706;37.656;2023-04-15T13:14:01;101290.28;;;19.01;nan
43814;BME280;29669;55.706;37.656;2023-04-15T13:16:30;101285.47;;;19.19;nan
43814;BME280;29669;55.706;37.656;2023-04-15T13:19:24;101284.50;;;19.35;nan
43814;BME280;29669;55.706;37.656;2023-04-15T13:21:52;101288.84;;;19.28;nan
43814;BME280;29669;55.706;37.656;2023-04-15T13:24:25;101284.22;;;19.30;nan
43814;BME280;29669;55.706;37.656;2023-04-15T13:26:53;101287.13;;;19.35;nan
43814;BME280;29669;55.706;37.656;2023-04-15T13:31:48;101295.81;;;19.79;nan
43814;BME280;29669;55.706;37.656;2023-04-15T13:34:15;101290.59;;;19.86;nan
43814;BME280;29669;55.706;37.656;2023-04-15T13:36:43;101292.03;;;19.88;nan
43814;BME280;29669;55.706;37.656;2023-04-15T13:39:10;101286.34;;;19.85;nan
43814;BME280;29669;55.706;37.656;2023-04-15T13:41:38;101290.47;;;19.94;nan